KSTC/STC METAR and TAF weather

Enter ICAO airport designator
Station Type Date Time Source
KSTC METAR 2019/04/18 14:53 UTC NOAA

KSTC 181453Z AUTO 36008KT 10SM BKN011 OVC020 06/04 A2983 RMK AO2 SLP117 T00610039 53005


Station Type Date Time Source
KSTC Decoded METAR 2019/04/18 14:53 UTC NOAA

ST. CLOUD REGIONAL AIRPORT, MN, United States (KSTC) 45-33N 094-03W
Apr 18, 2019 - 10:53 AM EDT / 2019.04.18 1453 UTC
Wind: from the N (360 degrees) at 9 MPH (8 KT):0
Visibility: 10 mile(s):0
Sky conditions: overcast
Temperature: 43.0 F (6.1 C)
Dew Point: 39.0 F (3.9 C)
Relative Humidity: 85%
Pressure (altimeter): 29.83 in. Hg (1010 hPa)
Pressure tendency: 0.01 inches (0.5 hPa) higher than three hours ago
ob: KSTC 181453Z AUTO 36008KT 10SM BKN011 OVC020 06/04 A2983 RMK AO2 SLP117 T00610039 53005
cycle: 15

Station Type Date Time Source
KSTC TAF 2019/04/18 12:22 UTC NOAA

TAF KSTC 181120Z 1812/1912 34008KT P6SM OVC020
FM181800 34010G17KT P6SM VCSH BKN035
FM182100 34012G20KT P6SM BKN060
FM190100 35007KT P6SM SKC

Example: see airport list